Time;durP1;ratioP1;P1;durP2;ratioP2;P2;SDS_P1;SDS_P2;PMS_P1;PMS_P2;Temp;Humidity;BMP_temperature;BMP_pressure;BME280_temperature;BME280_humidity;BME280_pressure;Samples;Min_cycle;Max_cycle;Signal;HPM_P1;HPM_P2
2023/03/07 00:01:01;;;;;;;60.20;32.37;;;-0.50;99.90;;;;;;10366272;28;20259;-83
2023/03/07 00:06:09;;;;;;;66.83;32.73;;;-0.30;99.90;;;;;;10366943;28;20337;-83
2023/03/07 00:11:12;;;;;;;70.77;31.23;;;-0.10;99.90;;;;;;10367401;28;20236;-83
2023/03/07 00:16:16;;;;;;;68.37;31.53;;;0.00;99.90;;;;;;10365597;28;20261;-83
2023/03/07 00:21:21;;;;;;;68.47;32.60;;;-0.40;99.90;;;;;;10366445;28;20332;-83
2023/03/07 00:26:24;;;;;;;54.90;25.50;;;-0.40;99.90;;;;;;10349182;28;20632;-83
2023/03/07 00:31:27;;;;;;;51.50;25.37;;;-0.20;99.90;;;;;;10365408;28;20266;-83
2023/03/07 00:36:30;;;;;;;59.63;29.20;;;0.20;99.90;;;;;;10365696;28;20308;-84
2023/03/07 00:41:33;;;;;;;52.83;24.30;;;0.10;99.90;;;;;;10348174;28;20275;-83
2023/03/07 00:46:36;;;;;;;46.70;22.83;;;0.10;99.90;;;;;;10348401;28;20262;-83
2023/03/07 00:51:38;;;;;;;51.00;24.40;;;1.70;99.90;;;;;;10346943;28;20253;-83
2023/03/07 00:56:41;;;;;;;57.63;25.13;;;0.70;99.90;;;;;;10348538;28;20272;-83
2023/03/07 01:01:44;;;;;;;41.87;22.17;;;0.30;99.90;;;;;;10366052;28;20327;-84
2023/03/07 01:06:47;;;;;;;46.70;24.43;;;0.00;99.90;;;;;;10347895;28;20276;-83
2023/03/07 01:11:49;;;;;;;58.27;23.73;;;0.20;99.90;;;;;;10367597;28;20704;-83
2023/03/07 01:16:52;;;;;;;47.80;18.60;;;0.10;99.90;;;;;;10354503;28;20329;-84
2023/03/07 01:21:55;;;;;;;56.27;20.27;;;0.50;99.90;;;;;;10355738;28;20277;-84
2023/03/07 01:26:58;;;;;;;50.03;17.43;;;0.40;99.90;;;;;;10355787;28;20299;-84
2023/03/07 01:32:00;;;;;;;40.93;17.87;;;0.50;99.90;;;;;;10355938;28;20222;-84
2023/03/07 01:37:03;;;;;;;44.60;17.57;;;0.80;99.90;;;;;;10354219;28;20242;-83
2023/03/07 01:42:07;;;;;;;40.27;16.67;;;0.30;99.90;;;;;;10354814;28;20724;-83
2023/03/07 01:47:09;;;;;;;31.20;15.53;;;0.10;99.90;;;;;;10354494;28;20215;-83
2023/03/07 01:52:28;;;;;;;36.50;15.90;;;0.40;99.90;;;;;;10354467;28;20234;-82
2023/03/07 01:57:36;;;;;;;33.80;17.00;;;0.70;99.90;;;;;;10354386;28;20250;-82
2023/03/07 02:02:44;;;;;;;33.70;17.83;;;0.90;99.90;;;;;;10354299;28;20217;-82
2023/03/07 02:07:54;;;;;;;51.10;19.03;;;0.60;99.90;;;;;;10355481;28;20219;-83
2023/03/07 02:13:01;;;;;;;38.07;17.83;;;0.40;99.90;;;;;;10339853;28;20276;-83
2023/03/07 02:18:05;;;;;;;46.53;17.20;;;0.60;99.90;;;;;;10353610;28;20227;-82
2023/03/07 02:23:12;;;;;;;37.60;18.73;;;0.90;99.90;;;;;;10353759;28;20213;-82
2023/03/07 02:28:17;;;;;;;32.97;15.77;;;0.70;99.90;;;;;;10353791;28;20239;-82
2023/03/07 02:33:23;;;;;;;34.50;17.07;;;1.20;99.90;;;;;;10353715;28;20279;-82
2023/03/07 02:38:36;;;;;;;53.13;20.73;;;0.90;99.90;;;;;;10348611;28;20261;-81
2023/03/07 02:43:40;;;;;;;47.77;19.73;;;1.40;99.90;;;;;;10349037;28;20266;-82
2023/03/07 02:48:43;;;;;;;38.70;21.20;;;1.20;99.90;;;;;;10350099;28;20223;-83
2023/03/07 02:53:46;;;;;;;32.17;18.50;;;0.90;99.90;;;;;;10366463;28;20678;-81
2023/03/07 02:58:49;;;;;;;42.00;17.63;;;0.90;99.90;;;;;;10365569;28;20304;-82
2023/03/07 03:03:51;;;;;;;33.03;16.87;;;1.00;99.90;;;;;;10361291;28;20260;-83
2023/03/07 03:08:54;;;;;;;29.47;17.27;;;1.00;99.90;;;;;;10345787;28;20288;-81
2023/03/07 03:13:57;;;;;;;37.70;18.87;;;4.70;99.90;;;;;;10349322;28;20736;-81
2023/03/07 03:19:00;;;;;;;28.03;16.10;;;4.10;99.90;;;;;;10349185;28;20310;-81
2023/03/07 03:24:06;;;;;;;37.10;19.03;;;4.00;99.90;;;;;;10368594;28;20635;-81
2023/03/07 03:29:10;;;;;;;32.23;16.70;;;3.60;99.90;;;;;;10350163;28;20318;-81
2023/03/07 03:34:13;;;;;;;36.07;15.73;;;2.30;99.90;;;;;;10366108;28;20273;-82
2023/03/07 03:39:16;;;;;;;33.13;16.07;;;2.50;99.90;;;;;;10349534;28;20281;-81
2023/03/07 03:44:23;;;;;;;24.27;14.40;;;2.30;99.90;;;;;;10349106;28;20292;-82
2023/03/07 03:49:26;;;;;;;31.37;17.43;;;2.40;99.90;;;;;;10348762;28;20288;-81
2023/03/07 03:54:30;;;;;;;38.87;18.60;;;1.40;99.90;;;;;;10348183;28;20276;-81
2023/03/07 03:59:33;;;;;;;26.23;15.10;;;1.00;99.90;;;;;;10366249;28;20269;-81
2023/03/07 04:04:35;;;;;;;33.30;18.60;;;1.20;99.90;;;;;;10365350;28;20272;-81
2023/03/07 04:09:39;;;;;;;34.53;17.60;;;1.40;99.90;;;;;;10331803;28;20241;-81
2023/03/07 04:14:42;;;;;;;35.83;20.27;;;1.70;99.90;;;;;;10363601;28;20636;-81
2023/03/07 04:19:46;;;;;;;31.17;17.77;;;2.40;99.90;;;;;;10347509;28;20269;-81
2023/03/07 04:24:49;;;;;;;33.87;19.80;;;2.10;99.90;;;;;;10347360;28;20595;-81
2023/03/07 04:29:52;;;;;;;29.17;17.50;;;2.30;99.90;;;;;;10321856;28;20329;-81
2023/03/07 04:34:56;;;;;;;30.07;16.07;;;2.20;99.90;;;;;;10307664;28;20541;-81
2023/03/07 04:39:58;;;;;;;21.20;14.97;;;3.10;99.90;;;;;;10333089;28;20593;-83
2023/03/07 04:45:01;;;;;;;23.27;14.87;;;2.80;99.90;;;;;;10335822;28;20221;-81
2023/03/07 04:50:07;;;;;;;23.10;13.50;;;2.90;99.90;;;;;;10338253;28;20203;-81
2023/03/07 04:55:11;;;;;;;20.57;13.40;;;2.80;99.90;;;;;;10339227;28;20220;-81
2023/03/07 05:00:14;;;;;;;23.47;13.83;;;2.60;99.90;;;;;;10340584;28;20593;-80
2023/03/07 05:05:17;;;;;;;22.60;11.93;;;1.90;99.90;;;;;;10336969;28;20270;-80
2023/03/07 05:10:20;;;;;;;21.80;12.37;;;1.80;99.90;;;;;;10339170;28;20256;-80
2023/03/07 05:15:23;;;;;;;15.00;11.23;;;2.00;99.90;;;;;;10336668;28;20241;-80
2023/03/07 05:20:26;;;;;;;16.97;10.73;;;1.40;99.90;;;;;;10344027;28;20750;-81
2023/03/07 05:25:29;;;;;;;12.53;9.57;;;0.90;99.90;;;;;;10343513;28;20210;-81
2023/03/07 05:30:31;;;;;;;17.40;11.20;;;1.00;99.90;;;;;;10338417;28;20332;-80
2023/03/07 05:35:34;;;;;;;16.07;9.57;;;0.60;99.90;;;;;;10337661;28;20215;-81
2023/03/07 05:40:39;;;;;;;16.10;10.07;;;0.70;99.90;;;;;;10338678;28;20276;-80
2023/03/07 05:45:42;;;;;;;21.00;12.43;;;0.60;99.90;;;;;;10339904;28;20204;-81
2023/03/07 05:50:45;;;;;;;20.97;11.33;;;0.70;99.90;;;;;;10331122;28;20217;-81
2023/03/07 05:55:48;;;;;;;19.73;12.10;;;0.90;99.90;;;;;;10332523;28;20268;-81
2023/03/07 06:00:52;;;;;;;20.47;11.80;;;1.00;99.90;;;;;;10333764;28;20245;-80
2023/03/07 06:05:56;;;;;;;19.03;11.73;;;1.00;99.90;;;;;;10334857;28;20232;-81
2023/03/07 06:10:59;;;;;;;26.80;13.27;;;1.10;99.90;;;;;;10335333;28;20209;-81
2023/03/07 06:16:02;;;;;;;19.13;11.23;;;1.10;99.90;;;;;;10317096;28;20279;-81
2023/03/07 06:21:07;;;;;;;22.80;14.67;;;1.00;99.90;;;;;;10333787;28;20249;-81
2023/03/07 06:26:15;;;;;;;23.37;13.03;;;1.20;99.90;;;;;;10331931;28;20209;-81
2023/03/07 06:31:21;;;;;;;29.50;15.73;;;1.30;99.90;;;;;;10332141;28;20273;-80
2023/03/07 06:36:24;;;;;;;27.20;15.70;;;1.70;99.90;;;;;;10333848;28;20207;-81
2023/03/07 06:41:31;;;;;;;31.83;17.17;;;1.40;99.90;;;;;;10332689;28;20295;-80
2023/03/07 06:46:35;;;;;;;29.00;16.83;;;1.30;99.90;;;;;;10331048;28;20209;-82
2023/03/07 06:51:44;;;;;;;31.93;18.73;;;1.60;99.90;;;;;;10331895;28;20217;-81
2023/03/07 06:56:47;;;;;;;31.00;16.67;;;1.50;99.90;;;;;;10334565;28;20246;-81
2023/03/07 07:01:54;;;;;;;41.27;19.73;;;1.50;99.90;;;;;;10330634;28;20709;-81
2023/03/07 07:06:57;;;;;;;55.73;20.27;;;1.40;99.90;;;;;;10331873;28;20213;-80
2023/03/07 07:12:03;;;;;;;33.07;21.03;;;1.60;99.90;;;;;;10331724;28;20634;-81
2023/03/07 07:17:08;;;;;;;32.97;18.93;;;1.90;99.90;;;;;;10330463;28;20268;-80
2023/03/07 07:22:11;;;;;;;32.93;21.60;;;1.80;99.90;;;;;;10330083;28;20291;-80
2023/03/07 07:27:13;;;;;;;28.57;18.10;;;2.00;99.90;;;;;;10331718;28;20256;-81
2023/03/07 07:32:17;;;;;;;34.70;20.90;;;1.90;99.90;;;;;;10365679;28;20271;-82
2023/03/07 07:37:20;;;;;;;33.50;20.20;;;2.10;99.90;;;;;;10349883;28;20245;-81
2023/03/07 07:42:23;;;;;;;31.43;17.67;;;2.10;99.90;;;;;;10349402;28;20268;-81
2023/03/07 07:47:38;;;;;;;35.73;19.83;;;2.30;99.90;;;;;;10349360;28;20247;-81
2023/03/07 07:52:41;;;;;;;30.57;17.23;;;2.20;99.90;;;;;;10348640;28;20236;-82
2023/03/07 07:57:44;;;;;;;29.83;17.97;;;2.70;99.90;;;;;;10348601;28;20240;-81
2023/03/07 08:02:50;;;;;;;26.87;17.80;;;2.90;99.90;;;;;;10347844;28;20255;-81
2023/03/07 08:07:53;;;;;;;29.63;18.53;;;2.90;99.90;;;;;;10369389;28;20196;-81
2023/03/07 08:12:55;;;;;;;29.43;18.90;;;2.90;99.90;;;;;;10369590;28;20238;-82
2023/03/07 08:17:58;;;;;;;29.27;18.87;;;3.00;99.90;;;;;;10352265;28;20216;-83
2023/03/07 08:23:00;;;;;;;30.10;19.00;;;3.10;99.90;;;;;;10369467;28;20286;-82
2023/03/07 08:28:04;;;;;;;36.33;21.80;;;3.30;99.90;;;;;;10369857;28;20224;-82
2023/03/07 08:33:06;;;;;;;37.40;23.30;;;3.70;99.90;;;;;;10370257;28;20700;-82
2023/03/07 08:38:09;;;;;;;39.73;24.07;;;3.80;99.90;;;;;;10370851;28;20207;-82
2023/03/07 08:43:12;;;;;;;38.13;21.90;;;3.80;99.90;;;;;;10370583;28;20306;-82
2023/03/07 08:48:14;;;;;;;36.53;21.63;;;3.90;99.90;;;;;;10352846;28;20204;-83
2023/03/07 08:53:17;;;;;;;32.20;19.00;;;4.00;99.90;;;;;;10370557;28;20620;-82
2023/03/07 08:58:19;;;;;;;40.40;24.37;;;4.20;99.90;;;;;;10370537;28;20208;-82
2023/03/07 09:03:22;;;;;;;36.03;21.07;;;4.60;99.90;;;;;;10369996;28;20224;-83
2023/03/07 09:08:25;;;;;;;40.37;25.30;;;4.50;99.90;;;;;;10352467;28;20205;-82
2023/03/07 09:13:28;;;;;;;36.50;23.23;;;4.20;99.90;;;;;;10352265;28;20636;-83
2023/03/07 09:18:31;;;;;;;29.53;18.83;;;4.20;99.90;;;;;;10351470;28;20216;-83
2023/03/07 09:23:33;;;;;;;36.07;21.13;;;5.10;99.90;;;;;;10367862;28;20228;-83
2023/03/07 09:28:36;;;;;;;30.80;21.37;;;5.30;99.90;;;;;;10351718;28;20279;-84
2023/03/07 09:33:39;;;;;;;31.87;18.40;;;4.80;99.90;;;;;;10356576;28;20270;-83
2023/03/07 09:38:42;;;;;;;33.00;21.50;;;4.90;99.90;;;;;;10376625;28;20270;-84
2023/03/07 09:43:55;;;;;;;33.53;20.50;;;4.30;99.90;;;;;;10375028;28;20646;-84
2023/03/07 09:49:18;;;;;;;18.77;12.07;;;4.60;99.90;;;;;;10357940;28;20196;-85
2023/03/07 09:54:35;;;;;;;21.47;10.37;;;6.20;99.90;;;;;;10374509;28;20557;-84
2023/03/07 09:59:42;;;;;;;28.17;19.20;;;7.30;99.90;;;;;;10375456;28;20208;-84
2023/03/07 10:04:57;;;;;;;29.83;20.90;;;6.20;99.90;;;;;;10370223;28;20241;-85
2023/03/07 10:10:04;;;;;;;36.43;21.70;;;5.10;99.90;;;;;;10372077;28;20224;-84
2023/03/07 10:15:46;;;;;;;22.60;14.20;;;4.40;99.90;;;;;;10355930;28;20294;-85
2023/03/07 10:20:57;;;;;;;13.83;8.90;;;4.80;99.90;;;;;;10359281;28;20256;-84
2023/03/07 10:26:46;;;;;;;13.83;8.17;;;6.10;99.90;;;;;;10372421;28;20263;-84
2023/03/07 10:32:10;;;;;;;22.17;15.97;;;7.00;99.90;;;;;;10203666;29;20242;-84
2023/03/07 10:37:19;;;;;;;38.33;22.50;;;6.90;99.90;;;;;;10207336;29;20360;-84
2023/03/07 10:42:30;;;;;;;22.00;14.53;;;6.20;99.90;;;;;;10192239;29;20309;-84
2023/03/07 10:47:33;;;;;;;30.70;20.87;;;6.00;99.90;;;;;;10208622;29;20239;-84
2023/03/07 10:52:45;;;;;;;29.03;19.23;;;6.40;99.90;;;;;;10191620;29;20247;-84
2023/03/07 10:57:47;;;;;;;23.70;16.73;;;6.50;99.90;;;;;;10208251;29;20287;-84
2023/03/07 11:02:50;;;;;;;20.83;13.43;;;6.30;99.90;;;;;;10223556;28;20285;-84
2023/03/07 11:07:53;;;;;;;27.77;18.33;;;6.60;99.90;;;;;;10372770;28;20201;-85
2023/03/07 11:12:56;;;;;;;24.87;18.23;;;6.50;99.90;;;;;;10356020;28;20208;-83
2023/03/07 11:17:59;;;;;;;24.77;17.83;;;6.50;99.90;;;;;;10369132;28;20248;-83
2023/03/07 11:23:24;;;;;;;17.03;11.33;;;6.60;99.90;;;;;;10366168;28;20255;-84
2023/03/07 11:28:30;;;;;;;25.20;17.67;;;7.50;99.90;;;;;;10367169;28;20345;-84
2023/03/07 11:33:36;;;;;;;23.50;16.20;;;7.00;99.90;;;;;;10368017;28;20238;-83
2023/03/07 11:39:18;;;;;;;30.37;19.80;;;7.20;99.90;;;;;;10367536;28;20234;-83
2023/03/07 11:44:45;;;;;;;25.53;17.60;;;6.60;99.90;;;;;;10366978;28;20317;-84
2023/03/07 11:50:16;;;;;;;24.33;16.47;;;7.00;99.90;;;;;;10349982;28;20249;-84
2023/03/07 11:55:35;;;;;;;27.63;19.07;;;6.90;99.90;;;;;;10365969;28;20233;-84
2023/03/07 12:00:52;;;;;;;25.73;18.30;;;6.70;99.90;;;;;;10366583;28;20324;-84
2023/03/07 12:06:07;;;;;;;25.70;17.77;;;6.70;99.90;;;;;;10366654;28;20233;-84
2023/03/07 12:11:12;;;;;;;28.07;18.67;;;6.60;99.90;;;;;;10348605;28;20313;-84
2023/03/07 12:16:43;;;;;;;16.30;10.53;;;6.80;99.90;;;;;;10366531;28;20252;-84
2023/03/07 12:22:03;;;;;;;21.97;13.67;;;6.60;99.90;;;;;;10348977;28;20288;-84
2023/03/07 12:27:16;;;;;;;29.10;19.30;;;7.10;99.90;;;;;;10366247;28;20315;-84
2023/03/07 12:32:26;;;;;;;18.10;12.60;;;6.90;99.90;;;;;;10366176;28;20252;-84
2023/03/07 12:38:04;;;;;;;19.80;12.10;;;6.80;99.90;;;;;;10349052;28;20244;-83
2023/03/07 12:43:36;;;;;;;19.60;12.27;;;7.80;99.90;;;;;;10340794;28;20666;-83
2023/03/07 12:48:47;;;;;;;27.47;18.53;;;7.40;99.90;;;;;;10366116;28;20331;-83
2023/03/07 12:54:07;;;;;;;26.80;17.17;;;7.40;99.90;;;;;;10348892;28;20247;-83
2023/03/07 12:59:12;;;;;;;27.67;17.60;;;6.90;99.90;;;;;;10366327;28;20244;-83
2023/03/07 13:04:35;;;;;;;23.20;14.50;;;7.00;99.90;;;;;;10365758;28;20320;-83
2023/03/07 13:09:46;;;;;;;28.60;17.93;;;7.20;99.90;;;;;;10356565;28;20241;-83
2023/03/07 13:14:59;;;;;;;24.43;16.73;;;7.60;99.90;;;;;;10373946;28;20247;-83
2023/03/07 13:20:14;;;;;;;23.47;14.83;;;6.70;99.90;;;;;;10373932;28;20306;-83
2023/03/07 13:25:20;;;;;;;30.27;18.00;;;7.10;99.90;;;;;;10372849;28;20244;-83
2023/03/07 13:30:28;;;;;;;24.10;16.20;;;6.90;99.90;;;;;;10355025;28;20319;-83
2023/03/07 13:35:31;;;;;;;26.17;16.73;;;6.50;99.90;;;;;;10380818;28;20233;-83
2023/03/07 13:40:33;;;;;;;26.13;16.97;;;7.10;99.90;;;;;;10353673;28;20236;-84
2023/03/07 13:45:36;;;;;;;26.60;16.63;;;6.30;99.90;;;;;;10372000;28;20690;-83
2023/03/07 13:51:02;;;;;;;21.83;14.53;;;6.40;99.90;;;;;;10371396;28;20306;-83
2023/03/07 13:56:15;;;;;;;23.83;15.07;;;6.30;99.90;;;;;;10359840;28;20245;-83
2023/03/07 14:01:21;;;;;;;23.67;15.93;;;6.10;99.90;;;;;;10370941;28;20248;-83
2023/03/07 14:06:36;;;;;;;25.17;17.20;;;6.30;99.90;;;;;;10353430;28;20287;-83
2023/03/07 14:11:44;;;;;;;20.20;14.33;;;6.30;99.90;;;;;;10370844;28;20319;-83
2023/03/07 14:17:41;;;;;;;24.73;15.20;;;5.90;99.90;;;;;;10352065;28;20243;-84
2023/03/07 14:23:19;;;;;;;24.87;17.37;;;6.30;99.90;;;;;;10283079;28;20269;-83
2023/03/07 14:28:28;;;;;;;23.80;16.23;;;5.50;99.90;;;;;;10283284;28;20662;-83
2023/03/07 14:33:33;;;;;;;26.73;17.63;;;5.10;99.90;;;;;;10272429;28;20307;-82
2023/03/07 14:38:39;;;;;;;23.77;15.23;;;4.70;99.90;;;;;;10252832;28;20241;-84
2023/03/07 14:44:13;;;;;;;27.10;15.33;;;5.80;99.90;;;;;;10244818;28;20320;-83
2023/03/07 14:49:37;;;;;;;20.43;13.00;;;5.60;99.90;;;;;;10266442;28;20245;-83
2023/03/07 14:54:44;;;;;;;17.03;12.97;;;5.00;99.90;;;;;;10299913;28;21754;-84
2023/03/07 15:00:27;;;;;;;24.33;15.57;;;4.80;99.90;;;;;;10356255;28;20232;-84
2023/03/07 15:05:56;;;;;;;19.17;13.97;;;4.60;99.90;;;;;;10218464;28;20381;-83
2023/03/07 15:11:04;;;;;;;23.37;15.77;;;4.40;99.90;;;;;;10192501;28;20231;-83
2023/03/07 15:16:12;;;;;;;20.30;13.73;;;4.30;99.90;;;;;;10216550;29;20920;-83
2023/03/07 15:21:19;;;;;;;16.50;12.53;;;4.30;99.90;;;;;;10243093;29;20266;-83
2023/03/07 15:26:26;;;;;;;17.40;11.03;;;4.40;99.90;;;;;;10242887;29;20330;-83
2023/03/07 15:31:46;;;;;;;16.73;13.00;;;5.00;99.90;;;;;;10242085;28;20265;-83
2023/03/07 15:36:49;;;;;;;25.03;15.27;;;4.80;99.90;;;;;;10272279;28;20295;-83
2023/03/07 15:42:00;;;;;;;19.07;11.93;;;4.60;99.90;;;;;;10368242;28;20314;-83
2023/03/07 15:47:13;;;;;;;23.37;16.10;;;4.40;99.90;;;;;;10368333;28;20299;-83
2023/03/07 15:52:31;;;;;;;24.73;17.30;;;4.40;99.90;;;;;;10368165;28;20239;-83
2023/03/07 15:57:47;;;;;;;20.27;13.47;;;4.20;99.90;;;;;;10367181;28;20219;-83
2023/03/07 16:02:50;;;;;;;17.33;11.03;;;4.80;99.90;;;;;;10309360;28;20271;-83
2023/03/07 16:07:56;;;;;;;20.10;15.03;;;5.00;99.90;;;;;;10325726;28;20237;-83
2023/03/07 16:13:00;;;;;;;24.63;16.70;;;4.70;99.90;;;;;;10357329;28;20239;-82
2023/03/07 16:18:04;;;;;;;31.57;19.80;;;4.50;99.90;;;;;;10364203;28;20277;-83
2023/03/07 16:23:11;;;;;;;26.80;16.87;;;4.30;99.90;;;;;;10367323;28;20260;-83
2023/03/07 16:28:14;;;;;;;20.00;14.53;;;4.30;99.90;;;;;;10367278;28;20621;-83
2023/03/07 16:33:16;;;;;;;26.47;16.10;;;4.50;99.90;;;;;;10349538;28;20240;-83
2023/03/07 16:38:20;;;;;;;22.10;15.60;;;4.60;99.90;;;;;;10367721;28;20220;-83
2023/03/07 16:43:35;;;;;;;21.70;13.93;;;4.70;99.90;;;;;;10374977;28;20267;-83
2023/03/07 16:48:37;;;;;;;20.87;14.97;;;5.30;99.90;;;;;;10400899;28;20619;-83
2023/03/07 16:53:40;;;;;;;15.47;7.90;;;6.00;99.90;;;;;;10375791;28;20678;-83
2023/03/07 16:58:42;;;;;;;14.53;9.53;;;9.80;99.90;;;;;;10375631;28;20624;-82
2023/03/07 17:03:45;;;;;;;15.73;9.70;;;10.30;99.90;;;;;;10374959;28;20259;-82
2023/03/07 17:08:51;;;;;;;13.87;7.93;;;9.80;99.90;;;;;;10374944;28;20292;-83
2023/03/07 17:13:58;;;;;;;14.47;8.63;;;9.80;99.90;;;;;;10340931;28;20244;-83
2023/03/07 17:19:00;;;;;;;14.10;9.23;;;9.60;99.90;;;;;;10374045;28;20304;-83
2023/03/07 17:24:03;;;;;;;12.63;8.33;;;9.60;99.90;;;;;;10374462;28;20271;-83
2023/03/07 17:29:12;;;;;;;10.73;6.30;;;9.80;99.90;;;;;;10373977;28;20904;-82
2023/03/07 17:34:23;;;;;;;13.90;10.90;;;11.10;99.90;;;;;;10373630;28;20246;-83
2023/03/07 17:39:28;;;;;;;14.43;10.17;;;10.10;99.90;;;;;;10374006;28;20242;-83
2023/03/07 17:44:31;;;;;;;16.57;11.67;;;9.80;99.90;;;;;;10372469;28;20763;-83
2023/03/07 17:49:36;;;;;;;15.57;11.13;;;9.90;99.90;;;;;;10355867;28;20287;-83
2023/03/07 17:54:39;;;;;;;12.67;9.20;;;10.50;99.90;;;;;;10369889;28;20327;-83
2023/03/07 17:59:42;;;;;;;13.47;9.93;;;9.10;99.90;;;;;;10372122;28;20277;-83
2023/03/07 18:04:44;;;;;;;14.83;9.80;;;9.10;99.90;;;;;;10370712;28;20269;-83
2023/03/07 18:09:47;;;;;;;17.43;11.23;;;9.50;99.90;;;;;;10354202;28;20227;-83
2023/03/07 18:15:11;;;;;;;16.57;10.40;;;10.10;99.90;;;;;;10371797;28;20215;-83
2023/03/07 18:20:16;;;;;;;12.97;9.27;;;10.60;99.90;;;;;;10370822;28;20317;-83
2023/03/07 18:25:18;;;;;;;10.87;7.83;;;10.30;99.90;;;;;;10371104;28;20260;-82
2023/03/07 18:30:21;;;;;;;11.93;8.27;;;9.80;99.90;;;;;;9991204;28;9999659;-82
2023/03/07 18:35:24;;;;;;;16.90;10.17;;;9.40;99.90;;;;;;10350583;28;20247;-82
2023/03/07 18:40:27;;;;;;;13.77;9.57;;;9.40;99.90;;;;;;10348413;28;20990;-82
2023/03/07 18:45:29;;;;;;;11.97;7.97;;;9.60;99.90;;;;;;10366378;28;20285;-82
2023/03/07 18:50:32;;;;;;;11.63;8.37;;;9.70;99.90;;;;;;10366015;28;20306;-83
2023/03/07 18:55:37;;;;;;;11.67;7.20;;;10.00;99.90;;;;;;10309013;28;20701;-82
2023/03/07 19:00:39;;;;;;;12.07;9.13;;;9.30;99.90;;;;;;10354132;28;20231;-82
2023/03/07 19:05:47;;;;;;;12.33;9.20;;;9.20;99.90;;;;;;10366324;28;20681;-83
2023/03/07 19:10:50;;;;;;;13.30;7.77;;;9.20;99.90;;;;;;10351148;28;20308;-82
2023/03/07 19:16:18;;;;;;;12.37;9.03;;;10.00;99.90;;;;;;10368397;28;20249;-83
2023/03/07 19:21:23;;;;;;;13.83;9.07;;;9.50;99.90;;;;;;10366323;28;20627;-83
2023/03/07 19:26:26;;;;;;;13.23;9.20;;;10.30;99.90;;;;;;10350598;28;20309;-83
2023/03/07 19:31:30;;;;;;;11.50;8.37;;;10.20;99.90;;;;;;10349790;28;20270;-83
2023/03/07 19:36:34;;;;;;;10.30;7.47;;;9.90;99.90;;;;;;10367301;28;20245;-83
2023/03/07 19:41:38;;;;;;;11.90;8.27;;;10.10;99.90;;;;;;10349427;28;20688;-83
2023/03/07 19:46:44;;;;;;;15.67;8.23;;;9.70;99.90;;;;;;10366611;28;20262;-83
2023/03/07 19:51:47;;;;;;;12.40;8.87;;;9.80;99.90;;;;;;10003147;28;10000312;-83
2023/03/07 19:56:50;;;;;;;11.37;8.73;;;10.20;99.90;;;;;;10363779;28;20315;-82
2023/03/07 20:01:53;;;;;;;13.83;8.87;;;9.50;99.90;;;;;;10364630;28;20244;-83
2023/03/07 20:06:56;;;;;;;10.50;8.07;;;10.00;99.90;;;;;;10363483;28;20665;-82
2023/03/07 20:11:59;;;;;;;10.80;7.37;;;10.50;99.90;;;;;;10363545;28;20235;-83
2023/03/07 20:17:02;;;;;;;10.77;7.17;;;10.10;99.90;;;;;;10362820;28;20239;-83
2023/03/07 20:22:04;;;;;;;10.07;7.33;;;10.10;99.90;;;;;;10348588;28;20247;-83
2023/03/07 20:27:07;;;;;;;12.33;8.33;;;10.30;99.90;;;;;;10365932;28;20280;-83
2023/03/07 20:32:10;;;;;;;15.30;8.27;;;9.80;99.90;;;;;;10366754;28;20235;-83
2023/03/07 20:37:13;;;;;;;15.67;8.50;;;10.30;99.90;;;;;;10366386;28;20621;-83
2023/03/07 20:42:15;;;;;;;11.90;7.53;;;10.50;99.90;;;;;;10366005;28;20317;-83
2023/03/07 20:47:18;;;;;;;15.07;8.50;;;10.10;99.90;;;;;;10365818;28;20235;-83
2023/03/07 20:52:23;;;;;;;18.83;10.23;;;9.40;99.90;;;;;;10365425;28;20367;-83
2023/03/07 20:57:25;;;;;;;14.17;9.30;;;9.50;99.90;;;;;;10364528;28;20701;-83
2023/03/07 21:02:28;;;;;;;11.07;7.83;;;9.20;99.90;;;;;;10365344;28;20923;-83
2023/03/07 21:07:30;;;;;;;9.10;5.97;;;9.40;99.90;;;;;;10365696;28;20292;-83
2023/03/07 21:12:35;;;;;;;11.43;8.83;;;9.80;99.90;;;;;;10365693;28;20294;-82
2023/03/07 21:17:37;;;;;;;12.20;7.80;;;9.80;99.90;;;;;;10366112;28;20285;-83
2023/03/07 21:22:40;;;;;;;10.97;7.87;;;10.50;99.90;;;;;;10347492;28;20251;-83
2023/03/07 21:27:42;;;;;;;16.13;7.80;;;10.30;99.90;;;;;;10351897;28;20313;-83
2023/03/07 21:32:44;;;;;;;14.73;9.07;;;10.20;99.90;;;;;;10373093;28;20308;-83
2023/03/07 21:37:47;;;;;;;9.63;7.03;;;10.70;99.90;;;;;;10355469;28;20262;-83
2023/03/07 21:42:50;;;;;;;17.27;10.77;;;11.00;99.90;;;;;;10371433;28;20259;-82
2023/03/07 21:47:53;;;;;;;13.40;8.57;;;10.40;99.90;;;;;;10352581;28;21009;-82
2023/03/07 21:52:56;;;;;;;10.27;7.57;;;10.00;99.90;;;;;;10367900;28;20242;-83
2023/03/07 21:57:58;;;;;;;10.63;7.63;;;10.60;99.90;;;;;;10371533;28;20233;-83
2023/03/07 22:03:01;;;;;;;10.23;7.87;;;9.90;99.90;;;;;;10370510;28;20332;-83
2023/03/07 22:08:03;;;;;;;13.93;8.33;;;9.80;99.90;;;;;;10350224;28;20242;-82
2023/03/07 22:13:06;;;;;;;9.07;7.23;;;10.00;99.90;;;;;;10370727;28;20686;-82
2023/03/07 22:18:09;;;;;;;8.50;6.70;;;10.10;99.90;;;;;;10370957;28;20322;-82
2023/03/07 22:23:11;;;;;;;13.67;8.70;;;9.80;99.90;;;;;;10370656;28;20265;-83
2023/03/07 22:28:18;;;;;;;6.27;4.20;;;10.90;99.90;;;;;;10370122;28;20712;-83
2023/03/07 22:33:20;;;;;;;10.03;7.10;;;10.30;99.90;;;;;;10370365;28;20244;-83
2023/03/07 22:38:24;;;;;;;12.37;7.53;;;11.10;99.90;;;;;;10369919;28;20244;-82
2023/03/07 22:43:30;;;;;;;8.73;6.57;;;11.40;99.90;;;;;;10364037;28;20701;-83
2023/03/07 22:48:33;;;;;;;10.70;6.40;;;10.90;99.90;;;;;;10329512;28;20244;-83
2023/03/07 22:53:35;;;;;;;7.97;5.20;;;10.70;99.90;;;;;;10329776;28;20288;-83
2023/03/07 22:58:38;;;;;;;10.47;6.53;;;10.80;99.90;;;;;;10329466;28;20266;-83
2023/03/07 23:03:41;;;;;;;10.63;6.30;;;10.80;99.90;;;;;;10365131;28;20784;-83
2023/03/07 23:08:45;;;;;;;11.33;7.37;;;10.80;99.90;;;;;;10369068;28;20301;-83
2023/03/07 23:13:48;;;;;;;8.70;5.60;;;11.00;99.90;;;;;;10351780;28;20679;-83
2023/03/07 23:18:53;;;;;;;7.83;4.80;;;11.40;99.90;;;;;;10368905;28;20294;-83
2023/03/07 23:23:57;;;;;;;7.40;4.87;;;11.10;99.90;;;;;;10367764;28;20267;-83
2023/03/07 23:29:00;;;;;;;7.80;5.43;;;11.10;99.90;;;;;;10350521;28;20356;-85
2023/03/07 23:34:14;;;;;;;11.90;5.90;;;10.90;99.90;;;;;;10350893;28;20689;-84
2023/03/07 23:39:17;;;;;;;10.33;6.87;;;11.30;99.90;;;;;;10368515;28;20299;-84
2023/03/07 23:44:20;;;;;;;9.33;6.67;;;11.00;99.90;;;;;;10368067;28;20259;-84
2023/03/07 23:49:23;;;;;;;8.63;6.53;;;11.30;99.90;;;;;;10366903;28;20324;-84
2023/03/07 23:54:25;;;;;;;8.10;5.87;;;10.60;99.90;;;;;;10367603;28;20284;-84
2023/03/07 23:59:28;;;;;;;8.77;6.50;;;10.80;99.90;;;;;;10368299;28;20245;-84
